sensor_id;sensor_type;location;lat;lon;timestamp;P1;durP1;ratioP1;P2;durP2;ratioP2
54919;SDS011;63804;53.120;8.764;2024-03-02T00:01:36;16.92;;;10.65;;
54919;SDS011;63804;53.120;8.764;2024-03-02T00:04:04;15.55;;;9.55;;
54919;SDS011;63804;53.120;8.764;2024-03-02T00:06:33;16.65;;;10.07;;
54919;SDS011;63804;53.120;8.764;2024-03-02T00:09:01;16.73;;;10.23;;
54919;SDS011;63804;53.120;8.764;2024-03-02T00:11:29;16.25;;;10.07;;
54919;SDS011;63804;53.120;8.764;2024-03-02T00:13:57;16.60;;;9.52;;
54919;SDS011;63804;53.120;8.764;2024-03-02T00:16:24;15.10;;;9.57;;
54919;SDS011;63804;53.120;8.764;2024-03-02T00:19:01;16.75;;;10.30;;
54919;SDS011;63804;53.120;8.764;2024-03-02T00:21:29;18.88;;;10.32;;
54919;SDS011;63804;53.120;8.764;2024-03-02T00:23:58;17.77;;;10.35;;
54919;SDS011;63804;53.120;8.764;2024-03-02T00:26:26;16.77;;;10.10;;
54919;SDS011;63804;53.120;8.764;2024-03-02T00:28:54;17.45;;;10.38;;
54919;SDS011;63804;53.120;8.764;2024-03-02T00:31:26;16.60;;;9.65;;
54919;SDS011;63804;53.120;8.764;2024-03-02T00:33:53;16.77;;;9.90;;
54919;SDS011;63804;53.120;8.764;2024-03-02T00:36:26;14.57;;;9.23;;
54919;SDS011;63804;53.120;8.764;2024-03-02T00:38:54;17.58;;;10.50;;
54919;SDS011;63804;53.120;8.764;2024-03-02T00:41:31;15.93;;;10.00;;
54919;SDS011;63804;53.120;8.764;2024-03-02T00:43:59;16.20;;;9.35;;
54919;SDS011;63804;53.120;8.764;2024-03-02T00:46:42;15.88;;;10.05;;
54919;SDS011;63804;53.120;8.764;2024-03-02T00:49:23;15.68;;;9.57;;
54919;SDS011;63804;53.120;8.764;2024-03-02T00:51:51;15.73;;;9.32;;
54919;SDS011;63804;53.120;8.764;2024-03-02T00:54:20;16.25;;;9.38;;
54919;SDS011;63804;53.120;8.764;2024-03-02T00:56:50;16.02;;;9.68;;
54919;SDS011;63804;53.120;8.764;2024-03-02T00:59:18;16.25;;;9.48;;
54919;SDS011;63804;53.120;8.764;2024-03-02T01:01:45;15.32;;;9.10;;
54919;SDS011;63804;53.120;8.764;2024-03-02T01:04:13;16.25;;;9.57;;
54919;SDS011;63804;53.120;8.764;2024-03-02T01:06:42;16.30;;;9.43;;
54919;SDS011;63804;53.120;8.764;2024-03-02T01:09:09;14.68;;;8.93;;
54919;SDS011;63804;53.120;8.764;2024-03-02T01:11:39;14.40;;;9.38;;
54919;SDS011;63804;53.120;8.764;2024-03-02T01:14:06;14.35;;;8.88;;
54919;SDS011;63804;53.120;8.764;2024-03-02T01:16:33;15.73;;;9.10;;
54919;SDS011;63804;53.120;8.764;2024-03-02T08:07:21;16.08;;;10.27;;
54919;SDS011;63804;53.120;8.764;2024-03-02T08:09:48;17.02;;;10.40;;
54919;SDS011;63804;53.120;8.764;2024-03-02T08:12:15;16.13;;;9.70;;
54919;SDS011;63804;53.120;8.764;2024-03-02T08:14:43;16.38;;;10.68;;
54919;SDS011;63804;53.120;8.764;2024-03-02T08:17:10;16.10;;;9.75;;
54919;SDS011;63804;53.120;8.764;2024-03-02T08:19:38;16.98;;;10.45;;
54919;SDS011;63804;53.120;8.764;2024-03-02T08:22:05;18.02;;;10.60;;
54919;SDS011;63804;53.120;8.764;2024-03-02T08:24:32;17.63;;;10.63;;
54919;SDS011;63804;53.120;8.764;2024-03-02T08:26:59;18.38;;;10.85;;
54919;SDS011;63804;53.120;8.764;2024-03-02T08:29:27;16.20;;;10.48;;
54919;SDS011;63804;53.120;8.764;2024-03-02T08:31:54;17.88;;;10.40;;
54919;SDS011;63804;53.120;8.764;2024-03-02T08:34:21;18.08;;;10.27;;
54919;SDS011;63804;53.120;8.764;2024-03-02T08:36:48;19.67;;;13.85;;
54919;SDS011;63804;53.120;8.764;2024-03-02T08:39:16;21.42;;;12.90;;
54919;SDS011;63804;53.120;8.764;2024-03-02T08:41:47;16.48;;;10.73;;
54919;SDS011;63804;53.120;8.764;2024-03-02T08:44:14;17.60;;;10.30;;
54919;SDS011;63804;53.120;8.764;2024-03-02T08:46:42;16.05;;;10.07;;
54919;SDS011;63804;53.120;8.764;2024-03-02T08:49:09;17.05;;;10.52;;
54919;SDS011;63804;53.120;8.764;2024-03-02T08:51:36;14.95;;;10.07;;
54919;SDS011;63804;53.120;8.764;2024-03-02T08:54:04;16.23;;;10.45;;
54919;SDS011;63804;53.120;8.764;2024-03-02T08:56:31;16.67;;;10.30;;
54919;SDS011;63804;53.120;8.764;2024-03-02T08:58:58;16.90;;;10.30;;
54919;SDS011;63804;53.120;8.764;2024-03-02T09:01:25;16.75;;;10.10;;
54919;SDS011;63804;53.120;8.764;2024-03-02T09:03:53;17.80;;;10.68;;
54919;SDS011;63804;53.120;8.764;2024-03-02T09:06:20;18.60;;;9.98;;
54919;SDS011;63804;53.120;8.764;2024-03-02T09:08:48;16.63;;;10.65;;
54919;SDS011;63804;53.120;8.764;2024-03-02T09:11:16;19.17;;;11.25;;
54919;SDS011;63804;53.120;8.764;2024-03-02T09:13:43;16.45;;;10.63;;
54919;SDS011;63804;53.120;8.764;2024-03-02T09:16:11;17.88;;;10.45;;
54919;SDS011;63804;53.120;8.764;2024-03-02T09:18:38;17.98;;;10.43;;
54919;SDS011;63804;53.120;8.764;2024-03-02T09:21:05;18.15;;;10.68;;
54919;SDS011;63804;53.120;8.764;2024-03-02T09:23:33;16.95;;;10.20;;
54919;SDS011;63804;53.120;8.764;2024-03-02T09:26:00;17.58;;;10.65;;
54919;SDS011;63804;53.120;8.764;2024-03-02T09:28:27;17.98;;;9.70;;
54919;SDS011;63804;53.120;8.764;2024-03-02T09:30:54;17.73;;;9.63;;
54919;SDS011;63804;53.120;8.764;2024-03-02T09:33:26;18.05;;;10.20;;
54919;SDS011;63804;53.120;8.764;2024-03-02T09:35:53;15.68;;;10.00;;
54919;SDS011;63804;53.120;8.764;2024-03-02T09:38:21;17.02;;;10.23;;
54919;SDS011;63804;53.120;8.764;2024-03-02T09:40:48;16.70;;;10.25;;
54919;SDS011;63804;53.120;8.764;2024-03-02T09:43:16;15.95;;;9.38;;
54919;SDS011;63804;53.120;8.764;2024-03-02T09:45:43;15.77;;;9.48;;
54919;SDS011;63804;53.120;8.764;2024-03-02T09:48:12;14.85;;;9.32;;
54919;SDS011;63804;53.120;8.764;2024-03-02T09:50:39;14.55;;;9.00;;
54919;SDS011;63804;53.120;8.764;2024-03-02T09:53:07;17.60;;;10.30;;
54919;SDS011;63804;53.120;8.764;2024-03-02T09:55:35;16.13;;;9.43;;
54919;SDS011;63804;53.120;8.764;2024-03-02T09:58:02;15.40;;;9.43;;
54919;SDS011;63804;53.120;8.764;2024-03-02T10:00:32;17.23;;;9.20;;
54919;SDS011;63804;53.120;8.764;2024-03-02T10:03:00;16.35;;;9.82;;
54919;SDS011;63804;53.120;8.764;2024-03-02T10:05:27;14.75;;;9.05;;
54919;SDS011;63804;53.120;8.764;2024-03-02T10:07:59;16.20;;;9.93;;
54919;SDS011;63804;53.120;8.764;2024-03-02T10:10:38;14.57;;;8.85;;
54919;SDS011;63804;53.120;8.764;2024-03-02T10:13:07;14.32;;;9.40;;
54919;SDS011;63804;53.120;8.764;2024-03-02T10:15:36;16.27;;;9.10;;
54919;SDS011;63804;53.120;8.764;2024-03-02T10:18:04;16.65;;;9.00;;
54919;SDS011;63804;53.120;8.764;2024-03-02T10:20:31;15.93;;;9.25;;
54919;SDS011;63804;53.120;8.764;2024-03-02T10:23:09;14.80;;;8.48;;
54919;SDS011;63804;53.120;8.764;2024-03-02T10:25:41;15.45;;;9.18;;
54919;SDS011;63804;53.120;8.764;2024-03-02T10:28:23;16.10;;;8.60;;
54919;SDS011;63804;53.120;8.764;2024-03-02T10:30:50;14.38;;;7.97;;
54919;SDS011;63804;53.120;8.764;2024-03-02T10:33:20;14.13;;;8.45;;
54919;SDS011;63804;53.120;8.764;2024-03-02T10:35:49;15.48;;;8.65;;
54919;SDS011;63804;53.120;8.764;2024-03-02T10:38:17;15.10;;;8.23;;
54919;SDS011;63804;53.120;8.764;2024-03-02T10:40:47;13.25;;;7.47;;
54919;SDS011;63804;53.120;8.764;2024-03-02T10:43:15;13.23;;;7.57;;
54919;SDS011;63804;53.120;8.764;2024-03-02T10:45:44;14.50;;;8.20;;
54919;SDS011;63804;53.120;8.764;2024-03-02T10:48:15;13.65;;;7.82;;
54919;SDS011;63804;53.120;8.764;2024-03-02T10:50:43;13.00;;;7.32;;
54919;SDS011;63804;53.120;8.764;2024-03-02T10:53:10;13.77;;;8.20;;
54919;SDS011;63804;53.120;8.764;2024-03-02T10:55:37;13.98;;;7.68;;
54919;SDS011;63804;53.120;8.764;2024-03-02T10:58:06;12.93;;;7.57;;
54919;SDS011;63804;53.120;8.764;2024-03-02T11:00:34;12.85;;;7.18;;
54919;SDS011;63804;53.120;8.764;2024-03-02T11:03:06;13.70;;;7.25;;
54919;SDS011;63804;53.120;8.764;2024-03-02T11:05:38;13.93;;;7.63;;
54919;SDS011;63804;53.120;8.764;2024-03-02T11:08:13;14.93;;;8.07;;
54919;SDS011;63804;53.120;8.764;2024-03-02T11:10:54;15.05;;;8.32;;
54919;SDS011;63804;53.120;8.764;2024-03-02T11:13:27;12.73;;;7.10;;
54919;SDS011;63804;53.120;8.764;2024-03-02T11:16:18;12.38;;;6.63;;
54919;SDS011;63804;53.120;8.764;2024-03-02T11:18:57;15.25;;;7.25;;
54919;SDS011;63804;53.120;8.764;2024-03-02T11:21:25;13.98;;;6.55;;
54919;SDS011;63804;53.120;8.764;2024-03-02T11:23:53;11.48;;;6.47;;
54919;SDS011;63804;53.120;8.764;2024-03-02T11:26:20;12.05;;;6.40;;
54919;SDS011;63804;53.120;8.764;2024-03-02T11:28:49;11.35;;;6.13;;
54919;SDS011;63804;53.120;8.764;2024-03-02T11:31:16;12.15;;;6.22;;
54919;SDS011;63804;53.120;8.764;2024-03-02T11:33:43;11.57;;;6.18;;
54919;SDS011;63804;53.120;8.764;2024-03-02T11:36:14;11.85;;;6.45;;
54919;SDS011;63804;53.120;8.764;2024-03-02T11:38:43;11.27;;;6.20;;
54919;SDS011;63804;53.120;8.764;2024-03-02T11:41:11;14.05;;;6.97;;
54919;SDS011;63804;53.120;8.764;2024-03-02T11:43:38;12.48;;;6.30;;
54919;SDS011;63804;53.120;8.764;2024-03-02T11:46:07;11.95;;;6.28;;
54919;SDS011;63804;53.120;8.764;2024-03-02T11:48:35;11.77;;;5.85;;
54919;SDS011;63804;53.120;8.764;2024-03-02T11:51:04;13.63;;;6.45;;
54919;SDS011;63804;53.120;8.764;2024-03-02T11:53:31;12.80;;;5.32;;
54919;SDS011;63804;53.120;8.764;2024-03-02T11:56:02;11.20;;;5.80;;
54919;SDS011;63804;53.120;8.764;2024-03-02T11:58:29;10.05;;;5.50;;
54919;SDS011;63804;53.120;8.764;2024-03-02T12:00:57;10.02;;;5.20;;
54919;SDS011;63804;53.120;8.764;2024-03-02T12:03:25;11.05;;;5.50;;
54919;SDS011;63804;53.120;8.764;2024-03-02T12:05:53;10.90;;;5.85;;
54919;SDS011;63804;53.120;8.764;2024-03-02T12:08:21;10.15;;;5.80;;
54919;SDS011;63804;53.120;8.764;2024-03-02T12:10:57;12.18;;;6.07;;
54919;SDS011;63804;53.120;8.764;2024-03-02T12:13:29;10.32;;;5.40;;
54919;SDS011;63804;53.120;8.764;2024-03-02T12:15:56;11.02;;;5.57;;
54919;SDS011;63804;53.120;8.764;2024-03-02T12:18:24;10.98;;;5.93;;
54919;SDS011;63804;53.120;8.764;2024-03-02T12:20:53;12.27;;;6.30;;
54919;SDS011;63804;53.120;8.764;2024-03-02T12:23:24;11.32;;;5.82;;
54919;SDS011;63804;53.120;8.764;2024-03-02T12:25:52;13.02;;;6.00;;
54919;SDS011;63804;53.120;8.764;2024-03-02T12:28:19;11.38;;;6.10;;
54919;SDS011;63804;53.120;8.764;2024-03-02T12:30:50;12.10;;;6.60;;
54919;SDS011;63804;53.120;8.764;2024-03-02T12:33:17;11.00;;;6.10;;
54919;SDS011;63804;53.120;8.764;2024-03-02T12:35:45;11.30;;;5.65;;
54919;SDS011;63804;53.120;8.764;2024-03-02T12:38:12;10.13;;;5.68;;
54919;SDS011;63804;53.120;8.764;2024-03-02T12:40:41;16.13;;;6.80;;
54919;SDS011;63804;53.120;8.764;2024-03-02T12:43:08;11.23;;;5.45;;
54919;SDS011;63804;53.120;8.764;2024-03-02T12:45:35;10.60;;;5.63;;
54919;SDS011;63804;53.120;8.764;2024-03-02T12:48:04;10.98;;;5.85;;
54919;SDS011;63804;53.120;8.764;2024-03-02T12:50:32;11.40;;;5.50;;
54919;SDS011;63804;53.120;8.764;2024-03-02T12:53:00;10.63;;;5.53;;
54919;SDS011;63804;53.120;8.764;2024-03-02T12:55:28;12.35;;;5.60;;
54919;SDS011;63804;53.120;8.764;2024-03-02T12:57:56;14.07;;;6.15;;
54919;SDS011;63804;53.120;8.764;2024-03-02T13:00:24;9.70;;;5.03;;
54919;SDS011;63804;53.120;8.764;2024-03-02T13:02:51;11.48;;;5.80;;
54919;SDS011;63804;53.120;8.764;2024-03-02T13:05:19;10.00;;;5.25;;
54919;SDS011;63804;53.120;8.764;2024-03-02T13:07:47;10.18;;;5.28;;
54919;SDS011;63804;53.120;8.764;2024-03-02T13:10:16;10.45;;;5.35;;
54919;SDS011;63804;53.120;8.764;2024-03-02T13:12:45;13.65;;;5.47;;
54919;SDS011;63804;53.120;8.764;2024-03-02T13:15:13;9.50;;;5.40;;
54919;SDS011;63804;53.120;8.764;2024-03-02T13:17:44;11.85;;;5.38;;
54919;SDS011;63804;53.120;8.764;2024-03-02T13:20:12;9.27;;;4.82;;
54919;SDS011;63804;53.120;8.764;2024-03-02T13:22:41;9.27;;;4.93;;
54919;SDS011;63804;53.120;8.764;2024-03-02T13:25:09;9.95;;;5.18;;
54919;SDS011;63804;53.120;8.764;2024-03-02T13:27:38;9.02;;;4.97;;
54919;SDS011;63804;53.120;8.764;2024-03-02T13:30:06;10.57;;;5.03;;
54919;SDS011;63804;53.120;8.764;2024-03-02T13:32:36;11.05;;;5.53;;
54919;SDS011;63804;53.120;8.764;2024-03-02T13:35:03;16.88;;;9.27;;
54919;SDS011;63804;53.120;8.764;2024-03-02T13:37:31;11.55;;;6.53;;
54919;SDS011;63804;53.120;8.764;2024-03-02T13:39:58;10.02;;;5.97;;
54919;SDS011;63804;53.120;8.764;2024-03-02T13:42:25;12.75;;;8.57;;
54919;SDS011;63804;53.120;8.764;2024-03-02T13:44:54;17.13;;;10.40;;
54919;SDS011;63804;53.120;8.764;2024-03-02T13:47:22;11.65;;;6.93;;
54919;SDS011;63804;53.120;8.764;2024-03-02T13:49:49;10.70;;;5.93;;
54919;SDS011;63804;53.120;8.764;2024-03-02T13:52:16;11.55;;;5.55;;
54919;SDS011;63804;53.120;8.764;2024-03-02T13:54:44;11.73;;;6.13;;
54919;SDS011;63804;53.120;8.764;2024-03-02T13:57:13;11.32;;;6.68;;
54919;SDS011;63804;53.120;8.764;2024-03-02T13:59:42;10.55;;;6.07;;
54919;SDS011;63804;53.120;8.764;2024-03-02T14:02:10;10.48;;;5.70;;
54919;SDS011;63804;53.120;8.764;2024-03-02T14:04:38;10.70;;;5.32;;
54919;SDS011;63804;53.120;8.764;2024-03-02T14:07:06;10.10;;;5.18;;
54919;SDS011;63804;53.120;8.764;2024-03-02T14:09:35;11.02;;;5.70;;
54919;SDS011;63804;53.120;8.764;2024-03-02T14:12:03;11.23;;;5.90;;
54919;SDS011;63804;53.120;8.764;2024-03-02T14:14:32;11.15;;;5.72;;
54919;SDS011;63804;53.120;8.764;2024-03-02T14:16:59;10.10;;;5.80;;
54919;SDS011;63804;53.120;8.764;2024-03-02T14:19:33;12.23;;;5.93;;
54919;SDS011;63804;53.120;8.764;2024-03-02T14:22:00;10.52;;;5.93;;
54919;SDS011;63804;53.120;8.764;2024-03-02T14:24:28;10.70;;;6.05;;
54919;SDS011;63804;53.120;8.764;2024-03-02T14:26:56;9.10;;;4.85;;
54919;SDS011;63804;53.120;8.764;2024-03-02T14:29:43;9.27;;;4.50;;
54919;SDS011;63804;53.120;8.764;2024-03-02T14:32:10;10.10;;;4.72;;
54919;SDS011;63804;53.120;8.764;2024-03-02T14:34:37;15.82;;;4.88;;
54919;SDS011;63804;53.120;8.764;2024-03-02T14:37:06;9.52;;;4.45;;
54919;SDS011;63804;53.120;8.764;2024-03-02T14:39:33;8.50;;;4.18;;
54919;SDS011;63804;53.120;8.764;2024-03-02T14:42:02;14.00;;;4.82;;
54919;SDS011;63804;53.120;8.764;2024-03-02T14:44:29;9.00;;;4.50;;
54919;SDS011;63804;53.120;8.764;2024-03-02T14:46:56;8.73;;;4.30;;
54919;SDS011;63804;53.120;8.764;2024-03-02T14:49:25;8.93;;;4.18;;
54919;SDS011;63804;53.120;8.764;2024-03-02T14:51:53;9.82;;;4.80;;
54919;SDS011;63804;53.120;8.764;2024-03-02T14:54:21;10.43;;;6.40;;
54919;SDS011;63804;53.120;8.764;2024-03-02T14:56:48;9.95;;;5.45;;
54919;SDS011;63804;53.120;8.764;2024-03-02T14:59:16;12.35;;;8.13;;
54919;SDS011;63804;53.120;8.764;2024-03-02T15:01:43;10.93;;;6.30;;
54919;SDS011;63804;53.120;8.764;2024-03-02T15:04:11;11.88;;;5.65;;
54919;SDS011;63804;53.120;8.764;2024-03-02T15:06:38;9.10;;;4.13;;
54919;SDS011;63804;53.120;8.764;2024-03-02T15:09:05;8.27;;;4.15;;
54919;SDS011;63804;53.120;8.764;2024-03-02T15:11:32;9.20;;;4.57;;
54919;SDS011;63804;53.120;8.764;2024-03-02T15:14:00;8.80;;;4.38;;
54919;SDS011;63804;53.120;8.764;2024-03-02T15:16:27;7.95;;;4.15;;
54919;SDS011;63804;53.120;8.764;2024-03-02T15:18:55;7.70;;;3.80;;
54919;SDS011;63804;53.120;8.764;2024-03-02T15:21:22;8.18;;;4.13;;
54919;SDS011;63804;53.120;8.764;2024-03-02T15:23:50;8.05;;;4.22;;
54919;SDS011;63804;53.120;8.764;2024-03-02T15:26:17;8.10;;;4.43;;
54919;SDS011;63804;53.120;8.764;2024-03-02T15:28:44;9.18;;;5.00;;
54919;SDS011;63804;53.120;8.764;2024-03-02T15:31:11;8.13;;;4.13;;
54919;SDS011;63804;53.120;8.764;2024-03-02T15:33:39;7.30;;;3.75;;
54919;SDS011;63804;53.120;8.764;2024-03-02T15:36:06;8.02;;;4.15;;
54919;SDS011;63804;53.120;8.764;2024-03-02T15:38:34;8.75;;;3.72;;
54919;SDS011;63804;53.120;8.764;2024-03-02T15:41:08;7.05;;;3.28;;
54919;SDS011;63804;53.120;8.764;2024-03-02T15:43:35;6.88;;;3.28;;
54919;SDS011;63804;53.120;8.764;2024-03-02T15:46:06;7.53;;;4.00;;
54919;SDS011;63804;53.120;8.764;2024-03-02T15:48:33;6.97;;;3.60;;
54919;SDS011;63804;53.120;8.764;2024-03-02T15:51:01;8.43;;;3.47;;
54919;SDS011;63804;53.120;8.764;2024-03-02T15:53:32;7.85;;;3.40;;
54919;SDS011;63804;53.120;8.764;2024-03-02T15:55:59;6.25;;;2.97;;
54919;SDS011;63804;53.120;8.764;2024-03-02T15:58:27;6.85;;;4.18;;
54919;SDS011;63804;53.120;8.764;2024-03-02T16:00:55;9.93;;;5.18;;
54919;SDS011;63804;53.120;8.764;2024-03-02T16:03:22;9.15;;;4.63;;
54919;SDS011;63804;53.120;8.764;2024-03-02T16:05:50;9.15;;;4.72;;
54919;SDS011;63804;53.120;8.764;2024-03-02T16:08:17;8.57;;;4.05;;
54919;SDS011;63804;53.120;8.764;2024-03-02T16:10:44;9.48;;;4.40;;
54919;SDS011;63804;53.120;8.764;2024-03-02T16:13:12;8.25;;;4.60;;
54919;SDS011;63804;53.120;8.764;2024-03-02T16:15:40;10.23;;;4.50;;
54919;SDS011;63804;53.120;8.764;2024-03-02T16:18:07;9.27;;;4.38;;
54919;SDS011;63804;53.120;8.764;2024-03-02T16:20:35;8.18;;;3.92;;
54919;SDS011;63804;53.120;8.764;2024-03-02T16:23:02;7.97;;;3.70;;
54919;SDS011;63804;53.120;8.764;2024-03-02T16:25:29;8.40;;;4.32;;
54919;SDS011;63804;53.120;8.764;2024-03-02T16:28:00;11.48;;;5.00;;
54919;SDS011;63804;53.120;8.764;2024-03-02T16:30:29;16.98;;;9.10;;
54919;SDS011;63804;53.120;8.764;2024-03-02T16:32:56;14.13;;;6.32;;
54919;SDS011;63804;53.120;8.764;2024-03-02T16:35:24;31.95;;;13.82;;
54919;SDS011;63804;53.120;8.764;2024-03-02T16:37:51;32.58;;;13.82;;
54919;SDS011;63804;53.120;8.764;2024-03-02T16:40:18;101.40;;;37.85;;
54919;SDS011;63804;53.120;8.764;2024-03-02T16:42:45;87.85;;;31.50;;
54919;SDS011;63804;53.120;8.764;2024-03-02T16:45:13;120.70;;;39.72;;
54919;SDS011;63804;53.120;8.764;2024-03-02T16:47:40;72.78;;;25.17;;
54919;SDS011;63804;53.120;8.764;2024-03-02T16:50:07;136.45;;;42.90;;
54919;SDS011;63804;53.120;8.764;2024-03-02T16:52:38;84.22;;;28.80;;
54919;SDS011;63804;53.120;8.764;2024-03-02T16:55:05;130.35;;;41.70;;
54919;SDS011;63804;53.120;8.764;2024-03-02T16:57:34;126.10;;;36.38;;
54919;SDS011;63804;53.120;8.764;2024-03-02T17:00:01;143.93;;;56.20;;
54919;SDS011;63804;53.120;8.764;2024-03-02T17:02:28;40.30;;;27.85;;
54919;SDS011;63804;53.120;8.764;2024-03-02T17:04:56;11.68;;;7.10;;
54919;SDS011;63804;53.120;8.764;2024-03-02T17:07:23;13.32;;;4.95;;
54919;SDS011;63804;53.120;8.764;2024-03-02T17:09:52;9.38;;;4.63;;
54919;SDS011;63804;53.120;8.764;2024-03-02T17:12:23;11.43;;;5.15;;
54919;SDS011;63804;53.120;8.764;2024-03-02T17:14:50;10.60;;;5.22;;
54919;SDS011;63804;53.120;8.764;2024-03-02T17:17:17;8.98;;;4.18;;
54919;SDS011;63804;53.120;8.764;2024-03-02T17:19:45;8.60;;;4.57;;
54919;SDS011;63804;53.120;8.764;2024-03-02T17:22:12;11.23;;;4.82;;
54919;SDS011;63804;53.120;8.764;2024-03-02T17:24:39;10.15;;;5.10;;
54919;SDS011;63804;53.120;8.764;2024-03-02T17:27:06;10.85;;;5.57;;
54919;SDS011;63804;53.120;8.764;2024-03-02T17:29:33;10.63;;;4.50;;
54919;SDS011;63804;53.120;8.764;2024-03-02T17:32:01;10.00;;;4.43;;
54919;SDS011;63804;53.120;8.764;2024-03-02T17:34:28;8.70;;;4.50;;
54919;SDS011;63804;53.120;8.764;2024-03-02T17:36:56;9.75;;;5.50;;
54919;SDS011;63804;53.120;8.764;2024-03-02T17:39:23;11.15;;;5.57;;
54919;SDS011;63804;53.120;8.764;2024-03-02T17:41:50;11.68;;;5.93;;
54919;SDS011;63804;53.120;8.764;2024-03-02T17:44:18;10.25;;;5.63;;
54919;SDS011;63804;53.120;8.764;2024-03-02T17:46:45;11.05;;;5.60;;
54919;SDS011;63804;53.120;8.764;2024-03-02T17:49:12;10.77;;;5.05;;
54919;SDS011;63804;53.120;8.764;2024-03-02T17:51:42;10.30;;;5.20;;
54919;SDS011;63804;53.120;8.764;2024-03-02T17:54:09;9.20;;;4.95;;
54919;SDS011;63804;53.120;8.764;2024-03-02T17:56:36;11.05;;;5.38;;
54919;SDS011;63804;53.120;8.764;2024-03-02T17:59:03;9.93;;;4.50;;
54919;SDS011;63804;53.120;8.764;2024-03-02T18:01:30;8.98;;;4.63;;
54919;SDS011;63804;53.120;8.764;2024-03-02T18:03:57;8.30;;;4.45;;
54919;SDS011;63804;53.120;8.764;2024-03-02T18:06:24;10.80;;;4.88;;
54919;SDS011;63804;53.120;8.764;2024-03-02T18:08:52;11.43;;;4.68;;
54919;SDS011;63804;53.120;8.764;2024-03-02T18:11:20;9.38;;;4.80;;
54919;SDS011;63804;53.120;8.764;2024-03-02T18:13:50;9.70;;;4.90;;
54919;SDS011;63804;53.120;8.764;2024-03-02T18:16:17;12.18;;;5.72;;
54919;SDS011;63804;53.120;8.764;2024-03-02T18:18:46;12.60;;;7.13;;
54919;SDS011;63804;53.120;8.764;2024-03-02T18:21:15;11.23;;;6.28;;
54919;SDS011;63804;53.120;8.764;2024-03-02T18:23:45;12.93;;;6.43;;
54919;SDS011;63804;53.120;8.764;2024-03-02T18:26:12;11.25;;;5.28;;
54919;SDS011;63804;53.120;8.764;2024-03-02T18:28:39;9.65;;;4.78;;
54919;SDS011;63804;53.120;8.764;2024-03-02T18:31:07;11.02;;;5.38;;
54919;SDS011;63804;53.120;8.764;2024-03-02T18:33:35;10.45;;;4.78;;
54919;SDS011;63804;53.120;8.764;2024-03-02T18:36:02;8.30;;;4.18;;
54919;SDS011;63804;53.120;8.764;2024-03-02T18:38:30;9.68;;;3.75;;
54919;SDS011;63804;53.120;8.764;2024-03-02T18:40:58;8.05;;;3.70;;
54919;SDS011;63804;53.120;8.764;2024-03-02T18:43:26;7.53;;;3.47;;
54919;SDS011;63804;53.120;8.764;2024-03-02T18:45:53;7.55;;;3.42;;
54919;SDS011;63804;53.120;8.764;2024-03-02T18:48:22;7.90;;;4.15;;
54919;SDS011;63804;53.120;8.764;2024-03-02T18:50:50;8.43;;;4.00;;
54919;SDS011;63804;53.120;8.764;2024-03-02T18:53:17;8.20;;;3.90;;
54919;SDS011;63804;53.120;8.764;2024-03-02T18:55:44;8.25;;;4.00;;
54919;SDS011;63804;53.120;8.764;2024-03-02T18:58:11;8.50;;;4.03;;
54919;SDS011;63804;53.120;8.764;2024-03-02T19:00:39;8.40;;;3.45;;
54919;SDS011;63804;53.120;8.764;2024-03-02T19:03:06;6.95;;;3.85;;
54919;SDS011;63804;53.120;8.764;2024-03-02T19:05:37;9.52;;;3.85;;
54919;SDS011;63804;53.120;8.764;2024-03-02T19:08:05;8.93;;;4.15;;
54919;SDS011;63804;53.120;8.764;2024-03-02T19:10:32;6.97;;;3.50;;
54919;SDS011;63804;53.120;8.764;2024-03-02T19:12:59;9.38;;;4.43;;
54919;SDS011;63804;53.120;8.764;2024-03-02T19:15:27;8.35;;;3.83;;
54919;SDS011;63804;53.120;8.764;2024-03-02T19:17:54;8.45;;;4.05;;
54919;SDS011;63804;53.120;8.764;2024-03-02T19:20:21;7.95;;;4.00;;
54919;SDS011;63804;53.120;8.764;2024-03-02T19:22:50;8.65;;;4.60;;
54919;SDS011;63804;53.120;8.764;2024-03-02T19:25:20;8.05;;;4.13;;
54919;SDS011;63804;53.120;8.764;2024-03-02T19:27:47;9.18;;;4.32;;
54919;SDS011;63804;53.120;8.764;2024-03-02T19:30:14;9.10;;;4.45;;
54919;SDS011;63804;53.120;8.764;2024-03-02T19:32:41;9.13;;;4.10;;
54919;SDS011;63804;53.120;8.764;2024-03-02T19:35:09;7.30;;;3.65;;
54919;SDS011;63804;53.120;8.764;2024-03-02T19:37:38;10.00;;;4.53;;
54919;SDS011;63804;53.120;8.764;2024-03-02T19:40:08;7.57;;;4.00;;
54919;SDS011;63804;53.120;8.764;2024-03-02T19:42:37;8.68;;;3.83;;
54919;SDS011;63804;53.120;8.764;2024-03-02T19:45:04;6.85;;;3.67;;
54919;SDS011;63804;53.120;8.764;2024-03-02T19:47:32;9.60;;;4.40;;
54919;SDS011;63804;53.120;8.764;2024-03-02T19:49:59;8.40;;;3.53;;
54919;SDS011;63804;53.120;8.764;2024-03-02T19:52:27;7.53;;;3.90;;
54919;SDS011;63804;53.120;8.764;2024-03-02T19:54:54;8.10;;;3.70;;
54919;SDS011;63804;53.120;8.764;2024-03-02T19:57:22;9.73;;;4.25;;
54919;SDS011;63804;53.120;8.764;2024-03-02T19:59:50;7.35;;;3.88;;
54919;SDS011;63804;53.120;8.764;2024-03-02T20:02:17;9.00;;;4.18;;
54919;SDS011;63804;53.120;8.764;2024-03-02T20:04:47;9.57;;;4.30;;
54919;SDS011;63804;53.120;8.764;2024-03-02T20:07:14;8.02;;;3.97;;
54919;SDS011;63804;53.120;8.764;2024-03-02T20:09:42;9.40;;;4.40;;
54919;SDS011;63804;53.120;8.764;2024-03-02T20:12:09;9.55;;;4.25;;
54919;SDS011;63804;53.120;8.764;2024-03-02T20:14:37;8.65;;;4.20;;
54919;SDS011;63804;53.120;8.764;2024-03-02T20:17:05;7.50;;;4.20;;
54919;SDS011;63804;53.120;8.764;2024-03-02T20:19:32;9.05;;;4.53;;
54919;SDS011;63804;53.120;8.764;2024-03-02T20:21:59;9.68;;;4.78;;
54919;SDS011;63804;53.120;8.764;2024-03-02T20:24:26;8.63;;;4.32;;
54919;SDS011;63804;53.120;8.764;2024-03-02T20:26:54;10.95;;;5.28;;
54919;SDS011;63804;53.120;8.764;2024-03-02T20:29:21;9.30;;;4.95;;
54919;SDS011;63804;53.120;8.764;2024-03-02T20:31:48;9.68;;;5.22;;
54919;SDS011;63804;53.120;8.764;2024-03-02T20:34:15;11.70;;;5.40;;
54919;SDS011;63804;53.120;8.764;2024-03-02T20:36:44;12.18;;;6.05;;
54919;SDS011;63804;53.120;8.764;2024-03-02T20:39:12;11.60;;;6.40;;
54919;SDS011;63804;53.120;8.764;2024-03-02T20:41:39;13.00;;;7.40;;
54919;SDS011;63804;53.120;8.764;2024-03-02T20:44:06;13.07;;;6.70;;
54919;SDS011;63804;53.120;8.764;2024-03-02T20:46:33;12.02;;;6.82;;
54919;SDS011;63804;53.120;8.764;2024-03-02T20:49:00;14.20;;;7.28;;
54919;SDS011;63804;53.120;8.764;2024-03-02T20:51:28;13.40;;;7.38;;
54919;SDS011;63804;53.120;8.764;2024-03-02T20:53:58;16.05;;;7.95;;
54919;SDS011;63804;53.120;8.764;2024-03-02T20:56:27;13.82;;;7.90;;
54919;SDS011;63804;53.120;8.764;2024-03-02T20:58:55;14.40;;;8.55;;
54919;SDS011;63804;53.120;8.764;2024-03-02T21:01:22;14.25;;;8.05;;
54919;SDS011;63804;53.120;8.764;2024-03-02T21:03:49;14.27;;;8.20;;
54919;SDS011;63804;53.120;8.764;2024-03-02T21:06:16;16.27;;;8.20;;
54919;SDS011;63804;53.120;8.764;2024-03-02T21:08:43;16.30;;;8.57;;
54919;SDS011;63804;53.120;8.764;2024-03-02T21:11:10;13.65;;;8.38;;
54919;SDS011;63804;53.120;8.764;2024-03-02T21:13:40;16.13;;;8.73;;
54919;SDS011;63804;53.120;8.764;2024-03-02T21:16:08;16.02;;;9.05;;
54919;SDS011;63804;53.120;8.764;2024-03-02T21:18:35;16.95;;;8.73;;
54919;SDS011;63804;53.120;8.764;2024-03-02T21:21:04;17.05;;;9.32;;
54919;SDS011;63804;53.120;8.764;2024-03-02T21:23:32;16.17;;;9.05;;
54919;SDS011;63804;53.120;8.764;2024-03-02T21:26:01;16.05;;;10.07;;
54919;SDS011;63804;53.120;8.764;2024-03-02T21:28:30;18.65;;;10.23;;
54919;SDS011;63804;53.120;8.764;2024-03-02T21:30:57;17.13;;;10.23;;